Aeroporto :







RITROVATECI SU...

 
LOGIN :

Iscrizione | Disclaimer

   EN    FR    IT 

 









Sommario :    VFR   VFR Marginale   IFR   IFR Intensivo   IFR Molto Intensivo
Visibilità : 
Base nubi : 
>= 8 km
>= 3000ft
5 / 8 km
1000 / 3000 ft
1500m / 5 km
500 / 1000 ft
800 / 1500m
200 / 500 ft
< 800m
< 200 ft
Simboli :   Temporali  Nebbia  Neve Forte  Precipitazioni Forti  Vento > 20 kt






- Altitudine del aeroporto : 84 ft
- Codice IATA : YJT


CYJT - Stephenville

ULTIMO METAR :
  • 140800Z 30018G26KT 10SM -SHSN DRSN BKN026 BKN035 M02/M09 A3003 RMK SC5SC2 CVCTV CLD EMBD PRESRR SLP170

METARs OBSOLETI :
  • 140700Z 29018G28KT 10SM -SHSN DRSN BKN028 BKN042 M02/M08 A2996 RMK SC5SC2 CVCTV CLD EMBD PRESRR SLP148
  • 140600Z 30021G29KT 8SM -SHSN DRSN BKN041 M02/M08 A2990 RMK SC6 CVCTV CLD EMBD PRESRR SLP127

TAF TAF CYJT
Valido dal 14 a 06 ore il 15 a 06 ore UTC


140538Z 1406/1506 28020G30KT P6SM -SHSN SCT025 BKN030
TEMPO 1406/1412 3SM -SHSN BKN020
FM141200 30012G22KT P6SM -SHSN BKN040
FM141400 30012KT P6SM BKN040
BECMG 1419/1421 23007KT
FM150000 18010KT P6SM SCT040 BKN120
FM150400 12015KT 5SM -SN BKN020 BKN100 RMK NXT FCST BY 141200Z



MetMap, La meteo Aeronautica in un colpo d'occhio ! - Copyright ORBIFLY Dicembre 2007 - Disclaimer

ORBIFLY MET'MAP TEAM :

Programmazione e sviluppo : Alexandra Zaïnal
Concezione e sviluppo : Baudouin d'Aumeries
Co-Programmazione e sviluppo : Marc-Olivier Méhu
Supporto tecnico e logistico : Manuel Goepfert
Aiuto per la traduzione : Arnaldo La Scala

Contatto : metmap@orbifly.com




FONTI E CREDITI :

   NOAA